createdAt,value
2023-09-20T00:02:15.468Z,70.35
2023-09-20T00:04:48.974Z,71.40
2023-09-20T00:07:15.989Z,72.16
2023-09-20T00:09:42.762Z,72.33
2023-09-20T00:12:09.908Z,71.77
2023-09-20T00:14:36.609Z,72.34
2023-09-20T00:17:03.447Z,72.41
2023-09-20T00:19:30.169Z,72.98
2023-09-20T00:21:56.908Z,72.86
2023-09-20T00:24:23.618Z,73.13
2023-09-20T00:26:50.236Z,73.32
2023-09-20T00:29:16.940Z,74.01
2023-09-20T00:31:45.202Z,73.59
2023-09-20T00:34:12.002Z,73.37
2023-09-20T00:36:38.791Z,73.27
2023-09-20T00:39:05.402Z,73.07
2023-09-20T00:41:33.199Z,73.05
2023-09-20T00:43:59.973Z,73.31
2023-09-20T00:46:26.836Z,73.88
2023-09-20T00:48:55.687Z,73.99
2023-09-20T00:51:25.781Z,73.88
2023-09-20T00:53:58.767Z,74.20
2023-09-20T00:56:32.951Z,74.02
2023-09-20T00:59:05.716Z,74.01
2023-09-20T01:01:32.502Z,74.02
2023-09-20T01:03:59.149Z,74.64
2023-09-20T01:06:28.366Z,74.53
2023-09-20T01:08:57.057Z,74.52
2023-09-20T01:11:24.478Z,74.80
2023-09-20T01:13:51.256Z,74.98
2023-09-20T01:16:17.884Z,74.84
2023-09-20T01:18:47.930Z,75.40
2023-09-20T01:21:14.659Z,75.75
2023-09-20T01:23:44.644Z,76.06
2023-09-20T01:26:15.251Z,75.64
2023-09-20T01:28:42.282Z,74.89
2023-09-20T01:31:09.441Z,74.90
2023-09-20T01:33:36.928Z,74.69
2023-09-20T01:36:06.578Z,74.85
2023-09-20T01:38:33.940Z,75.28
2023-09-20T01:41:00.850Z,74.73
2023-09-20T01:43:27.553Z,74.75
2023-09-20T01:45:54.762Z,75.61
2023-09-20T01:48:22.288Z,75.99
2023-09-20T01:50:51.348Z,76.37
2023-09-20T01:53:18.040Z,76.13
2023-09-20T01:55:44.878Z,75.93
2023-09-20T01:58:14.656Z,75.69
2023-09-20T02:00:42.100Z,75.76
2023-09-20T02:03:20.680Z,75.28
2023-09-20T02:05:49.170Z,75.18
2023-09-20T02:08:16.835Z,74.98
2023-09-20T02:10:43.808Z,75.23
2023-09-20T02:13:10.457Z,75.00
2023-09-20T02:15:37.182Z,75.81
2023-09-20T02:18:06.416Z,76.18
2023-09-20T02:20:38.194Z,77.31
2023-09-20T02:23:07.339Z,79.49
2023-09-20T02:25:34.123Z,81.47
2023-09-20T02:28:00.906Z,84.42
2023-09-20T02:30:29.924Z,87.12
2023-09-20T02:33:00.895Z,89.01
2023-09-20T02:35:29.906Z,90.23
2023-09-20T02:37:57.707Z,90.72
2023-09-20T02:40:28.174Z,91.19
2023-09-20T02:42:59.619Z,92.26
2023-09-20T02:45:30.178Z,92.72
2023-09-20T02:47:59.184Z,92.68
2023-09-20T02:50:26.989Z,91.61
2023-09-20T02:52:54.762Z,90.19
2023-09-20T02:55:23.456Z,90.24
2023-09-20T02:57:53.543Z,91.25
2023-09-20T03:00:34.542Z,92.06
2023-09-20T03:03:04.141Z,91.32
2023-09-20T03:05:36.541Z,92.25
2023-09-20T03:08:05.642Z,93.15
2023-09-20T03:10:39.051Z,92.78
2023-09-20T03:13:07.162Z,92.90
2023-09-20T03:15:34.245Z,93.61
2023-09-20T03:18:06.443Z,94.31
2023-09-20T03:20:36.144Z,94.94
2023-09-20T03:23:04.643Z,95.65
2023-09-20T03:25:40.242Z,96.23
2023-09-20T03:28:11.668Z,96.65
2023-09-20T03:30:41.701Z,97.45
2023-09-20T03:33:12.553Z,97.79
2023-09-20T03:35:39.997Z,97.99
2023-09-20T03:38:06.817Z,97.55
2023-09-20T03:40:33.667Z,97.61
2023-09-20T03:43:00.402Z,97.67
2023-09-20T03:45:29.398Z,97.43
2023-09-20T03:47:58.621Z,98.10
2023-09-20T03:50:26.231Z,98.14
2023-09-20T03:52:53.835Z,98.57
2023-09-20T03:55:21.220Z,98.51
2023-09-20T03:57:49.992Z,98.93
2023-09-20T04:00:29.309Z,99.52
2023-09-20T04:02:57.640Z,100.00
2023-09-20T04:05:43.262Z,100.00
2023-09-20T04:08:12.896Z,99.69
2023-09-20T04:10:42.295Z,99.56
2023-09-20T04:13:09.581Z,98.49
2023-09-20T04:15:38.325Z,98.58
2023-09-20T04:18:05.233Z,98.69
2023-09-20T04:20:32.487Z,98.71
2023-09-20T04:22:59.840Z,99.09
2023-09-20T04:25:26.530Z,97.87
2023-09-20T04:27:53.144Z,97.72
2023-09-20T04:30:19.809Z,98.27
2023-09-20T04:32:46.746Z,98.18
2023-09-20T04:35:13.708Z,97.83
2023-09-20T04:37:40.620Z,97.81
2023-09-20T04:40:10.562Z,97.77
2023-09-20T04:42:37.346Z,97.88
2023-09-20T04:45:08.550Z,98.31
2023-09-20T04:47:38.591Z,98.85
2023-09-20T04:50:06.570Z,98.57
2023-09-20T04:52:33.292Z,99.35
2023-09-20T04:55:00.133Z,99.36
2023-09-20T04:57:26.945Z,99.87
2023-09-20T04:59:53.676Z,99.36
2023-09-20T05:02:23.902Z,99.20
2023-09-20T05:04:50.930Z,99.38
2023-09-20T05:07:17.699Z,100.00
2023-09-20T05:09:45.567Z,100.00
2023-09-20T05:12:13.635Z,100.00
2023-09-20T05:14:40.742Z,100.00
2023-09-20T05:17:07.746Z,99.67
2023-09-20T05:19:34.617Z,98.77
2023-09-20T05:22:02.361Z,99.09
2023-09-20T05:24:29.213Z,99.21
2023-09-20T05:26:56.020Z,99.27
2023-09-20T05:29:22.930Z,98.19
2023-09-20T05:31:51.122Z,97.78
2023-09-20T05:34:17.851Z,96.94
2023-09-20T05:36:44.605Z,97.97
2023-09-20T05:39:13.533Z,97.05
2023-09-20T05:41:41.203Z,97.33
2023-09-20T05:44:08.074Z,93.71
2023-09-20T05:46:34.836Z,92.40
2023-09-20T05:49:01.560Z,92.54
2023-09-20T05:51:28.251Z,92.19
2023-09-20T05:53:55.043Z,91.85
2023-09-20T05:56:22.188Z,91.13
2023-09-20T05:58:48.966Z,90.94
2023-09-20T06:01:19.499Z,90.19
2023-09-20T06:03:48.034Z,89.88
2023-09-20T06:06:15.470Z,87.93
2023-09-20T06:08:44.085Z,83.88
2023-09-20T06:11:12.090Z,81.18
2023-09-20T06:13:39.739Z,81.29
2023-09-20T06:16:10.487Z,79.55
2023-09-20T06:18:38.252Z,81.37
2023-09-20T06:21:10.348Z,80.62
2023-09-20T06:23:37.550Z,79.56
2023-09-20T06:26:16.179Z,75.90
2023-09-20T06:28:43.588Z,74.06
2023-09-20T06:31:17.031Z,72.45
2023-09-20T06:33:49.767Z,73.32
2023-09-20T06:36:24.123Z,71.86
2023-09-20T06:38:54.016Z,68.99
2023-09-20T06:41:25.959Z,64.50
2023-09-20T06:43:53.055Z,63.15
2023-09-20T06:46:25.362Z,62.32
2023-09-20T06:48:55.150Z,65.83
2023-09-20T06:51:21.800Z,67.89
2023-09-20T06:53:49.887Z,65.86
2023-09-20T06:56:16.790Z,64.19
2023-09-20T06:58:46.236Z,62.02
2023-09-20T07:01:13.533Z,62.79
2023-09-20T07:03:40.607Z,62.22
2023-09-20T07:06:07.338Z,59.90
2023-09-20T07:08:36.121Z,60.01
2023-09-20T07:11:04.368Z,60.04
2023-09-20T07:13:33.500Z,60.17
2023-09-20T07:16:06.504Z,61.17
2023-09-20T07:18:34.081Z,66.09
2023-09-20T07:21:00.980Z,66.15
2023-09-20T07:23:30.841Z,65.45
2023-09-20T07:26:00.154Z,68.54
2023-09-20T07:28:26.902Z,68.25
2023-09-20T07:30:56.588Z,66.27
2023-09-20T07:33:32.493Z,64.13
2023-09-20T07:36:03.299Z,63.64
2023-09-20T07:38:39.621Z,62.93
2023-09-20T07:41:15.234Z,63.09
2023-09-20T07:43:46.687Z,62.27
2023-09-20T07:46:15.615Z,61.77
2023-09-20T07:48:50.091Z,63.29
2023-09-20T07:51:26.071Z,65.18
2023-09-20T07:53:57.164Z,63.78
2023-09-20T07:56:24.687Z,64.06
2023-09-20T07:58:53.253Z,63.53
2023-09-20T08:01:24.449Z,61.47
2023-09-20T08:04:00.016Z,63.67
2023-09-20T08:06:35.024Z,58.99
2023-09-20T08:09:02.942Z,55.12
2023-09-20T08:11:30.326Z,51.08
2023-09-20T08:14:01.231Z,49.17
2023-09-20T08:19:19.918Z,48.89
2023-09-20T08:21:46.635Z,51.21
2023-09-20T08:24:32.178Z,54.69
2023-09-20T08:27:20.187Z,58.34
2023-09-20T08:30:05.823Z,62.06
2023-09-20T08:32:51.481Z,61.95
2023-09-20T08:35:37.444Z,57.94
2023-09-20T08:38:22.959Z,54.60
2023-09-20T08:41:08.504Z,49.32
2023-09-20T08:43:53.831Z,51.30
2023-09-20T08:46:40.257Z,54.70
2023-09-20T08:49:25.917Z,54.47
2023-09-20T08:52:28.109Z,51.77
2023-09-20T08:55:18.344Z,48.68
2023-09-20T08:58:04.443Z,50.29
2023-09-20T09:00:35.516Z,52.76
2023-09-20T09:03:05.739Z,51.74
2023-09-20T09:05:33.786Z,50.59
2023-09-20T09:08:04.956Z,50.05
2023-09-20T09:10:31.925Z,50.92
2023-09-20T09:12:58.951Z,54.45
2023-09-20T09:15:28.653Z,56.00
2023-09-20T09:17:55.894Z,57.58
2023-09-20T09:20:23.245Z,57.00
2023-09-20T09:22:51.005Z,55.79
2023-09-20T09:25:26.600Z,54.77
2023-09-20T09:27:54.787Z,55.26
2023-09-20T09:30:22.265Z,55.58
2023-09-20T09:32:50.455Z,55.69
2023-09-20T09:35:31.127Z,55.43
2023-09-20T09:38:02.168Z,54.44
2023-09-20T09:40:30.412Z,54.99
2023-09-20T09:43:12.235Z,54.30
2023-09-20T09:45:40.277Z,54.00
2023-09-20T09:48:09.423Z,53.08
2023-09-20T09:50:39.991Z,55.57
2023-09-20T09:53:10.158Z,54.37
2023-09-20T09:55:39.758Z,56.44
2023-09-20T09:58:06.829Z,56.86
2023-09-20T10:00:37.972Z,56.84
2023-09-20T10:03:17.029Z,56.12
2023-09-20T10:05:45.820Z,52.92
2023-09-20T10:08:15.112Z,53.24
2023-09-20T10:10:42.980Z,54.55
2023-09-20T10:13:13.997Z,55.62
2023-09-20T10:15:44.445Z,55.20
2023-09-20T10:18:12.692Z,54.13
2023-09-20T10:21:05.921Z,57.33
2023-09-20T10:23:38.645Z,55.89
2023-09-20T10:26:15.933Z,54.85
2023-09-20T10:28:45.484Z,53.97
2023-09-20T10:31:17.368Z,58.19
2023-09-20T10:33:47.622Z,56.37
2023-09-20T10:36:22.157Z,58.80
2023-09-20T10:38:49.511Z,58.34
2023-09-20T10:41:41.582Z,57.52
2023-09-20T10:44:08.727Z,56.29
2023-09-20T10:46:39.613Z,54.87
2023-09-20T10:49:08.064Z,54.09
2023-09-20T10:51:45.575Z,55.64
2023-09-20T10:54:26.586Z,56.17
2023-09-20T10:56:53.705Z,57.56
2023-09-20T10:59:27.641Z,54.73
2023-09-20T11:02:06.893Z,56.23
2023-09-20T11:04:34.549Z,57.65
2023-09-20T11:07:03.492Z,56.75
2023-09-20T11:09:35.298Z,55.92
2023-09-20T11:12:08.207Z,55.58
2023-09-20T11:14:40.151Z,54.14
2023-09-20T11:17:23.342Z,56.53
2023-09-20T11:19:54.558Z,56.98
2023-09-20T11:22:21.245Z,57.71
2023-09-20T11:24:52.977Z,58.30
2023-09-20T11:27:19.956Z,56.95
2023-09-20T11:29:50.444Z,57.94
2023-09-20T11:32:20.433Z,57.18
2023-09-20T11:34:53.167Z,56.24
2023-09-20T11:37:21.764Z,58.95
2023-09-20T11:40:01.437Z,56.09
2023-09-20T11:42:33.072Z,53.35
2023-09-20T11:45:29.138Z,54.70
2023-09-20T11:47:52.869Z,54.22
2023-09-20T11:50:19.962Z,55.68
2023-09-20T11:52:51.461Z,55.35
2023-09-20T11:55:20.916Z,54.73
2023-09-20T11:57:48.588Z,53.59
2023-09-20T12:00:20.387Z,53.86
2023-09-20T12:02:48.945Z,53.13
2023-09-20T12:05:18.668Z,52.08
2023-09-20T12:07:54.376Z,51.52
2023-09-20T12:10:22.251Z,51.94
2023-09-20T12:12:50.267Z,52.62
2023-09-20T12:15:16.842Z,54.44
2023-09-20T12:17:43.565Z,53.67
2023-09-20T12:20:13.170Z,53.66
2023-09-20T12:22:40.609Z,54.03
2023-09-20T12:25:07.656Z,53.51
2023-09-20T12:27:34.694Z,53.66
2023-09-20T12:30:01.405Z,55.42
2023-09-20T12:32:28.098Z,56.80
2023-09-20T12:34:56.497Z,55.08
2023-09-20T12:37:25.335Z,54.13
2023-09-20T12:39:52.080Z,53.85
2023-09-20T12:42:18.800Z,53.86
2023-09-20T12:44:45.441Z,53.88
2023-09-20T12:47:12.216Z,55.10
2023-09-20T12:49:38.946Z,54.98
2023-09-20T12:52:06.034Z,52.13
2023-09-20T12:54:32.694Z,51.55
2023-09-20T12:56:59.542Z,51.12
2023-09-20T12:59:28.471Z,50.41
2023-09-20T13:01:58.950Z,51.04
2023-09-20T13:04:26.390Z,51.63
2023-09-20T13:06:53.174Z,51.70
2023-09-20T13:09:21.130Z,51.26
2023-09-20T13:11:47.719Z,50.25
2023-09-20T13:14:15.831Z,49.73
2023-09-20T13:16:42.974Z,49.41
2023-09-20T13:19:10.405Z,49.53
2023-09-20T13:21:42.059Z,47.35
2023-09-20T13:24:09.844Z,46.77
2023-09-20T13:26:39.046Z,47.29
2023-09-20T13:29:09.199Z,49.01
2023-09-20T13:31:42.345Z,49.87
2023-09-20T13:34:16.870Z,50.41
2023-09-20T13:36:48.321Z,49.93
2023-09-20T13:39:19.177Z,47.59
2023-09-20T13:41:47.117Z,49.68
2023-09-20T13:44:13.817Z,48.94
2023-09-20T13:46:40.985Z,49.84
2023-09-20T13:49:08.287Z,52.45
2023-09-20T13:51:35.138Z,52.35
2023-09-20T13:54:01.968Z,53.38
2023-09-20T13:56:29.420Z,52.94
2023-09-20T13:58:56.087Z,53.80
2023-09-20T14:01:23.853Z,54.43
2023-09-20T14:03:50.701Z,54.12
2023-09-20T14:06:20.276Z,53.33
2023-09-20T14:08:46.919Z,53.24
2023-09-20T14:11:15.251Z,52.90
2023-09-20T14:13:42.589Z,53.01
2023-09-20T14:16:12.262Z,53.88
2023-09-20T14:18:39.067Z,53.73
2023-09-20T14:21:06.854Z,54.35
2023-09-20T14:23:34.009Z,53.21
2023-09-20T14:26:01.662Z,54.27
2023-09-20T14:28:28.386Z,54.96
2023-09-20T14:30:57.465Z,54.67
2023-09-20T14:33:24.206Z,54.14
2023-09-20T14:35:52.466Z,55.57
2023-09-20T14:38:25.281Z,54.77
2023-09-20T14:40:52.693Z,53.73
2023-09-20T14:43:19.400Z,53.75
2023-09-20T14:45:46.404Z,55.22
2023-09-20T14:48:13.689Z,58.36
2023-09-20T14:50:41.813Z,56.62
2023-09-20T14:53:08.892Z,56.33
2023-09-20T14:55:36.646Z,56.45
2023-09-20T14:58:03.488Z,56.14
2023-09-20T15:00:31.477Z,56.48
2023-09-20T15:03:00.828Z,55.59
2023-09-20T15:05:28.261Z,58.39
2023-09-20T15:07:56.565Z,58.67
2023-09-20T15:10:28.377Z,59.36
2023-09-20T15:13:03.150Z,60.71
2023-09-20T15:15:31.980Z,61.13
2023-09-20T15:18:00.492Z,60.68
2023-09-20T15:20:30.580Z,59.50
2023-09-20T15:23:00.236Z,58.82
2023-09-20T15:25:31.313Z,59.14
2023-09-20T15:28:01.660Z,59.14
2023-09-20T15:30:35.704Z,58.98
2023-09-20T15:33:10.399Z,59.46
2023-09-20T15:35:37.223Z,61.00
2023-09-20T15:38:04.088Z,61.67
2023-09-20T15:40:30.773Z,62.36
2023-09-20T15:42:58.937Z,63.37
2023-09-20T15:45:27.117Z,64.36
2023-09-20T15:47:58.185Z,64.76
2023-09-20T15:50:26.556Z,65.18
2023-09-20T15:52:53.051Z,65.63
2023-09-20T15:55:19.791Z,65.94
2023-09-20T15:57:47.348Z,65.31
2023-09-20T16:00:15.946Z,65.61
2023-09-20T16:02:44.182Z,65.28
2023-09-20T16:05:11.846Z,63.98
2023-09-20T16:07:41.819Z,62.51
2023-09-20T16:10:15.319Z,61.25
2023-09-20T16:12:45.096Z,61.35
2023-09-20T16:15:12.871Z,60.56
2023-09-20T16:17:39.837Z,60.93
2023-09-20T16:20:10.398Z,61.22
2023-09-20T16:22:37.275Z,61.67
2023-09-20T16:25:04.507Z,61.71
2023-09-20T16:27:31.444Z,62.46
2023-09-20T16:29:58.115Z,62.14
2023-09-20T16:32:25.009Z,62.40
2023-09-20T16:34:54.299Z,62.38
2023-09-20T16:37:21.408Z,62.64
2023-09-20T16:39:48.691Z,62.41
2023-09-20T16:42:15.394Z,63.61
2023-09-20T16:44:43.578Z,62.45
2023-09-20T16:47:11.460Z,63.00
2023-09-20T16:49:38.329Z,63.03
2023-09-20T16:52:05.799Z,63.30
2023-09-20T16:54:33.291Z,63.02
2023-09-20T16:57:01.095Z,63.52
2023-09-20T16:59:27.981Z,63.62
2023-09-20T17:01:54.998Z,64.71
2023-09-20T17:04:29.430Z,64.32
2023-09-20T17:06:56.676Z,64.48
2023-09-20T17:09:24.876Z,64.09
2023-09-20T17:11:51.744Z,64.48
2023-09-20T17:14:19.388Z,65.88
2023-09-20T17:16:46.558Z,65.26
2023-09-20T17:19:17.137Z,66.61
2023-09-20T17:21:46.222Z,66.36
2023-09-20T17:24:15.836Z,66.16
2023-09-20T17:26:43.217Z,67.19
2023-09-20T17:29:11.585Z,66.55
2023-09-20T17:31:38.295Z,66.49
2023-09-20T17:34:06.854Z,67.07
2023-09-20T17:36:35.255Z,68.57
2023-09-20T17:39:01.968Z,67.64
2023-09-20T17:41:31.877Z,66.60
2023-09-20T17:44:02.154Z,67.53
2023-09-20T17:46:29.752Z,65.86
2023-09-20T17:48:57.484Z,65.75
2023-09-20T17:51:25.836Z,67.98
2023-09-20T17:53:53.548Z,67.44
2023-09-20T17:56:21.200Z,67.55
2023-09-20T17:58:52.899Z,68.57
2023-09-20T18:01:20.104Z,65.86
2023-09-20T18:03:49.100Z,68.05
2023-09-20T18:06:16.937Z,67.40
2023-09-20T18:08:44.765Z,67.51
2023-09-20T18:11:12.893Z,67.32
2023-09-20T18:13:41.583Z,66.76
2023-09-20T18:16:12.965Z,69.53
2023-09-20T18:18:40.558Z,68.68
2023-09-20T18:21:07.986Z,68.03
2023-09-20T18:23:38.255Z,68.69
2023-09-20T18:26:05.826Z,67.68
2023-09-20T18:28:33.953Z,66.70
2023-09-20T18:31:01.380Z,67.09
2023-09-20T18:33:28.650Z,66.98
2023-09-20T18:35:56.399Z,66.42
2023-09-20T18:38:23.964Z,66.96
2023-09-20T18:40:51.133Z,68.26
2023-09-20T18:43:20.666Z,67.31
2023-09-20T18:45:47.482Z,68.38
2023-09-20T18:48:14.276Z,67.34
2023-09-20T18:50:50.922Z,66.95
2023-09-20T18:53:19.088Z,66.88
2023-09-20T18:55:46.228Z,66.73
2023-09-20T18:58:15.771Z,66.31
2023-09-20T19:00:42.511Z,67.67
2023-09-20T19:03:17.064Z,67.75
2023-09-20T19:05:45.872Z,67.32
2023-09-20T19:08:14.259Z,67.42
2023-09-20T19:10:41.462Z,67.94
2023-09-20T19:13:10.285Z,68.75
2023-09-20T19:15:40.408Z,69.82
2023-09-20T19:18:09.153Z,70.34
2023-09-20T19:20:39.975Z,70.37
2023-09-20T19:23:11.183Z,71.33
2023-09-20T19:25:38.580Z,71.02
2023-09-20T19:28:06.107Z,67.62
2023-09-20T19:30:34.526Z,67.17
2023-09-20T19:33:01.415Z,66.15
2023-09-20T19:35:28.246Z,66.32
2023-09-20T19:37:55.158Z,65.60
2023-09-20T19:40:24.625Z,64.63
2023-09-20T19:42:52.451Z,64.97
2023-09-20T19:45:19.828Z,64.12
2023-09-20T19:47:49.148Z,62.66
2023-09-20T19:50:22.578Z,63.20
2023-09-20T19:52:50.028Z,64.17
2023-09-20T19:55:26.168Z,64.71
2023-09-20T19:57:53.532Z,65.61
2023-09-20T20:00:25.731Z,65.23
2023-09-20T20:02:54.197Z,66.08
2023-09-20T20:05:25.260Z,65.68
2023-09-20T20:07:58.289Z,65.68
2023-09-20T20:10:25.939Z,65.60
2023-09-20T20:12:52.956Z,66.02
2023-09-20T20:15:23.658Z,65.75
2023-09-20T20:17:52.442Z,65.77
2023-09-20T20:20:27.996Z,66.30
2023-09-20T20:22:56.347Z,67.29
2023-09-20T20:25:28.274Z,67.83
2023-09-20T20:27:59.683Z,68.45
2023-09-20T20:30:31.875Z,69.55
2023-09-20T20:32:59.644Z,69.73
2023-09-20T20:35:27.607Z,70.41
2023-09-20T20:37:55.468Z,71.58
2023-09-20T20:40:24.411Z,71.69
2023-09-20T20:42:52.573Z,72.02
2023-09-20T20:45:22.461Z,72.97
2023-09-20T20:47:54.990Z,72.31
2023-09-20T20:50:28.386Z,72.56
2023-09-20T20:52:58.948Z,73.56
2023-09-20T20:55:31.091Z,74.06
2023-09-20T20:58:01.504Z,74.88
2023-09-20T21:00:32.283Z,74.24
2023-09-20T21:03:20.989Z,74.21
2023-09-20T21:05:50.363Z,75.08
2023-09-20T21:08:18.622Z,75.18
2023-09-20T21:10:45.795Z,75.18
2023-09-20T21:13:12.908Z,75.79
2023-09-20T21:15:40.619Z,74.28
2023-09-20T21:18:13.586Z,74.27
2023-09-20T21:20:41.146Z,73.96
2023-09-20T21:23:08.887Z,74.10
2023-09-20T21:25:38.009Z,74.74
2023-09-20T21:28:05.698Z,75.34
2023-09-20T21:30:33.442Z,76.45
2023-09-20T21:33:02.165Z,76.85
2023-09-20T21:35:30.573Z,77.47
2023-09-20T21:37:57.464Z,77.75
2023-09-20T21:40:28.324Z,78.42
2023-09-20T21:42:56.980Z,78.53
2023-09-20T21:45:23.608Z,78.26
2023-09-20T21:47:53.422Z,78.43
2023-09-20T21:50:25.922Z,79.51
2023-09-20T21:52:57.720Z,79.46
2023-09-20T21:55:29.409Z,80.53
2023-09-20T21:57:59.717Z,79.58
2023-09-20T22:00:29.034Z,78.72
2023-09-20T22:02:58.384Z,79.41
2023-09-20T22:05:27.001Z,78.53
2023-09-20T22:08:03.366Z,77.92
2023-09-20T22:10:45.546Z,78.28
2023-09-20T22:13:15.230Z,78.74
2023-09-20T22:15:42.630Z,77.40
2023-09-20T22:18:20.499Z,76.40
2023-09-20T22:20:51.897Z,77.54
2023-09-20T22:23:19.780Z,79.29
2023-09-20T22:25:46.447Z,79.42
2023-09-20T22:28:14.974Z,80.42
2023-09-20T22:30:41.953Z,80.72
2023-09-20T22:33:09.047Z,82.16
2023-09-20T22:35:36.130Z,83.13
2023-09-20T22:38:03.045Z,83.81
2023-09-20T22:40:30.151Z,84.39
2023-09-20T22:42:57.339Z,84.69
2023-09-20T22:45:28.227Z,83.97
2023-09-20T22:47:59.263Z,83.55
2023-09-20T22:50:29.480Z,84.06
2023-09-20T22:53:07.330Z,84.53
2023-09-20T22:55:38.254Z,85.28
2023-09-20T22:58:04.939Z,85.74
2023-09-20T23:00:34.635Z,85.71
2023-09-20T23:03:01.921Z,85.81
2023-09-20T23:05:29.362Z,86.71
2023-09-20T23:07:58.903Z,88.54
2023-09-20T23:10:25.765Z,89.99
2023-09-20T23:12:58.611Z,90.66
2023-09-20T23:15:31.607Z,91.45
2023-09-20T23:18:02.898Z,90.76
2023-09-20T23:20:34.622Z,90.85
2023-09-20T23:23:02.029Z,91.91
2023-09-20T23:25:29.790Z,93.18
2023-09-20T23:28:00.643Z,93.41
2023-09-20T23:30:32.208Z,93.47
2023-09-20T23:32:58.941Z,92.79
2023-09-20T23:35:25.713Z,91.48
2023-09-20T23:37:53.851Z,91.24
2023-09-20T23:40:23.584Z,90.41
2023-09-20T23:42:55.326Z,89.82
2023-09-20T23:45:24.505Z,89.51
2023-09-20T23:47:51.288Z,90.03
2023-09-20T23:50:18.159Z,91.58
2023-09-20T23:52:44.758Z,93.43
2023-09-20T23:55:13.149Z,93.78
2023-09-20T23:57:40.098Z,94.29
